createdAt,value
2023-03-07T00:00:29.524Z,4.30
2023-03-07T00:02:57.692Z,5.60
2023-03-07T00:05:25.750Z,4.70
2023-03-07T00:07:53.780Z,4.80
2023-03-07T00:10:23.169Z,4.53
2023-03-07T00:12:51.333Z,4.90
2023-03-07T00:15:19.509Z,4.90
2023-03-07T00:17:47.560Z,4.90
2023-03-07T00:20:16.449Z,4.83
2023-03-07T00:22:46.875Z,4.63
2023-03-07T00:25:16.386Z,5.20
2023-03-07T00:27:45.815Z,5.00
2023-03-07T00:30:14.280Z,4.77
2023-03-07T00:32:42.421Z,4.97
2023-03-07T00:35:12.240Z,5.43
2023-03-07T00:37:40.395Z,4.50
2023-03-07T00:40:12.760Z,4.93
2023-03-07T00:42:40.770Z,4.83
2023-03-07T00:45:13.520Z,5.67
2023-03-07T00:47:41.559Z,4.53
2023-03-07T00:50:11.123Z,5.00
2023-03-07T00:52:39.345Z,5.13
2023-03-07T00:55:09.259Z,3.97
2023-03-07T00:57:37.484Z,4.33
2023-03-07T01:00:07.390Z,5.60
2023-03-07T01:02:36.811Z,4.87
2023-03-07T01:05:06.379Z,4.50
2023-03-07T01:07:36.067Z,4.57
2023-03-07T01:10:04.530Z,4.33
2023-03-07T01:12:32.616Z,4.63
2023-03-07T01:15:00.811Z,5.00
2023-03-07T01:17:29.038Z,4.83
2023-03-07T01:19:58.543Z,5.30
2023-03-07T01:22:26.788Z,4.23
2023-03-07T01:24:55.037Z,4.60
2023-03-07T01:27:24.604Z,4.67
2023-03-07T01:29:53.030Z,4.40
2023-03-07T01:32:21.173Z,4.47
2023-03-07T01:34:49.159Z,4.43
2023-03-07T01:37:19.152Z,5.27
2023-03-07T01:39:47.780Z,4.27
2023-03-07T01:42:18.278Z,4.07
2023-03-07T01:45:27.435Z,4.30
2023-03-07T01:47:55.619Z,4.50
2023-03-07T01:50:23.983Z,4.43
2023-03-07T01:52:57.761Z,4.90
2023-03-07T01:55:30.698Z,5.27
2023-03-07T01:58:09.597Z,4.70
2023-03-07T02:00:39.216Z,4.57
2023-03-07T02:03:13.982Z,4.87
2023-03-07T02:05:50.947Z,4.50
2023-03-07T02:08:25.385Z,4.90
2023-03-07T02:10:53.614Z,4.17
2023-03-07T02:13:22.177Z,4.87
2023-03-07T02:15:51.067Z,4.13
2023-03-07T02:18:26.169Z,5.60
2023-03-07T02:21:02.933Z,4.90
2023-03-07T02:23:41.556Z,4.43
2023-03-07T02:26:14.719Z,4.37
2023-03-07T02:28:46.907Z,5.13
2023-03-07T02:31:15.921Z,4.47
2023-03-07T02:33:44.167Z,5.80
2023-03-07T02:36:18.229Z,4.53
2023-03-07T02:38:57.935Z,5.10
2023-03-07T02:41:32.951Z,4.60
2023-03-07T02:44:30.862Z,4.93
2023-03-07T02:46:59.157Z,4.23
2023-03-07T02:49:29.220Z,4.43
2023-03-07T02:52:01.118Z,4.63
2023-03-07T02:54:30.431Z,5.00
2023-03-07T02:56:59.205Z,5.13
2023-03-07T02:59:28.615Z,4.73
2023-03-07T03:01:57.554Z,4.53
2023-03-07T03:04:26.059Z,4.10
2023-03-07T03:06:54.125Z,4.23
2023-03-07T03:09:22.605Z,4.97
2023-03-07T03:11:50.658Z,5.33
2023-03-07T03:14:21.992Z,5.13
2023-03-07T03:16:53.502Z,4.90
2023-03-07T03:19:22.532Z,4.87
2023-03-07T03:21:51.020Z,5.27
2023-03-07T03:24:19.916Z,5.10
2023-03-07T03:26:49.171Z,4.70
2023-03-07T03:29:19.448Z,5.37
2023-03-07T03:31:47.586Z,5.20
2023-03-07T03:34:17.074Z,5.07
2023-03-07T03:36:45.184Z,5.30
2023-03-07T03:39:14.596Z,5.50
2023-03-07T03:41:47.474Z,5.50
2023-03-07T03:44:16.914Z,5.43
2023-03-07T03:46:45.128Z,5.17
2023-03-07T03:49:14.272Z,4.77
2023-03-07T03:51:44.910Z,5.10
2023-03-07T03:54:13.196Z,5.37
2023-03-07T03:56:41.795Z,5.10
2023-03-07T03:59:09.955Z,5.47
2023-03-07T04:01:38.046Z,5.17
2023-03-07T04:04:06.612Z,5.47
2023-03-07T04:06:36.428Z,5.40
2023-03-07T04:09:06.264Z,5.10
2023-03-07T04:11:34.516Z,5.17
2023-03-07T04:14:02.951Z,4.50
2023-03-07T04:16:31.919Z,5.63
2023-03-07T04:19:00.809Z,5.10
2023-03-07T04:21:28.990Z,5.03
2023-03-07T04:23:59.418Z,6.17
2023-03-07T04:26:32.518Z,5.27
2023-03-07T04:29:00.759Z,4.93
2023-03-07T04:31:32.871Z,4.77
2023-03-07T04:34:03.567Z,4.77
2023-03-07T04:36:32.254Z,5.87
2023-03-07T04:39:00.284Z,5.03
2023-03-07T04:41:28.926Z,5.13
2023-03-07T04:44:02.870Z,5.10
2023-03-07T04:46:31.190Z,4.97
2023-03-07T04:48:59.743Z,5.37
2023-03-07T04:51:28.094Z,5.27
2023-03-07T04:53:56.187Z,5.13
2023-03-07T04:56:24.488Z,5.23
2023-03-07T04:58:52.746Z,5.10
2023-03-07T05:01:22.228Z,5.27
2023-03-07T05:03:50.505Z,5.73
2023-03-07T05:06:20.354Z,5.03
2023-03-07T05:08:50.871Z,5.70
2023-03-07T05:11:19.347Z,5.57
2023-03-07T05:13:47.652Z,4.80
2023-03-07T05:16:19.413Z,4.90
2023-03-07T05:18:50.476Z,4.93
2023-03-07T05:21:19.147Z,4.87
2023-03-07T05:23:47.226Z,4.60
2023-03-07T05:26:15.369Z,4.83
2023-03-07T05:28:43.731Z,4.97
2023-03-07T05:31:11.775Z,4.40
2023-03-07T05:33:42.632Z,5.40
2023-03-07T05:36:12.914Z,4.83
2023-03-07T05:38:41.298Z,5.00
2023-03-07T05:41:09.631Z,4.53
2023-03-07T05:43:37.872Z,5.40
2023-03-07T05:46:06.532Z,4.50
2023-03-07T05:48:35.192Z,5.03
2023-03-07T05:51:03.958Z,4.47
2023-03-07T05:53:33.671Z,5.50
2023-03-07T05:56:02.494Z,5.40
2023-03-07T05:58:32.076Z,5.03
2023-03-07T06:01:02.991Z,4.53
2023-03-07T06:03:32.103Z,4.23
2023-03-07T06:06:00.429Z,5.00
2023-03-07T06:08:29.362Z,5.07
2023-03-07T06:10:59.019Z,4.80
2023-03-07T06:13:28.072Z,4.90
2023-03-07T06:15:56.865Z,5.03
2023-03-07T06:18:27.223Z,4.93
2023-03-07T06:20:58.698Z,5.53
2023-03-07T06:23:29.596Z,4.63
2023-03-07T06:26:00.384Z,5.70
2023-03-07T06:28:30.269Z,5.03
2023-03-07T06:30:59.867Z,5.07
2023-03-07T06:33:28.077Z,5.07
2023-03-07T06:35:56.877Z,5.20
2023-03-07T06:38:25.206Z,5.37
2023-03-07T06:40:57.248Z,5.53
2023-03-07T06:43:28.101Z,5.13
2023-03-07T06:45:56.966Z,5.50
2023-03-07T06:48:28.047Z,5.00
2023-03-07T06:50:56.422Z,4.40
2023-03-07T06:53:24.603Z,5.43
2023-03-07T06:55:53.576Z,5.13
2023-03-07T06:58:21.749Z,4.53
2023-03-07T07:00:51.485Z,4.37
2023-03-07T07:03:21.428Z,5.03
2023-03-07T07:05:49.607Z,5.57
2023-03-07T07:08:17.981Z,4.80
2023-03-07T07:10:46.110Z,5.43
2023-03-07T07:13:15.076Z,5.00
2023-03-07T07:15:43.241Z,4.13
2023-03-07T07:18:15.007Z,4.63
2023-03-07T07:20:43.850Z,5.10
2023-03-07T07:23:13.425Z,5.13
2023-03-07T07:25:41.461Z,5.20
2023-03-07T07:28:12.301Z,5.80
2023-03-07T07:30:45.132Z,5.57
2023-03-07T07:33:17.090Z,5.00
2023-03-07T07:35:48.454Z,4.47
2023-03-07T07:38:17.030Z,5.67
2023-03-07T07:40:45.954Z,4.87
2023-03-07T07:43:18.188Z,4.60
2023-03-07T07:45:50.858Z,4.97
2023-03-07T07:48:22.924Z,5.17
2023-03-07T07:50:55.982Z,5.00
2023-03-07T07:53:24.366Z,5.07
2023-03-07T07:55:52.451Z,5.17
2023-03-07T07:58:20.509Z,5.33
2023-03-07T08:00:50.045Z,5.63
2023-03-07T08:03:18.116Z,5.40
2023-03-07T08:05:49.131Z,5.03
2023-03-07T08:08:17.820Z,4.80
2023-03-07T08:10:48.590Z,4.83
2023-03-07T08:13:18.623Z,4.70
2023-03-07T08:15:46.778Z,5.77
2023-03-07T08:18:14.913Z,4.30
2023-03-07T08:20:43.009Z,4.80
2023-03-07T08:23:12.419Z,4.57
2023-03-07T08:25:40.800Z,5.00
2023-03-07T08:28:08.949Z,4.33
2023-03-07T08:30:38.183Z,4.83
2023-03-07T08:33:06.235Z,4.63
2023-03-07T08:35:34.411Z,4.67
2023-03-07T08:38:02.530Z,4.77
2023-03-07T08:40:32.564Z,5.20
2023-03-07T08:43:01.995Z,4.63
2023-03-07T08:45:30.162Z,4.73
2023-03-07T08:47:58.650Z,4.47
2023-03-07T08:50:29.287Z,4.13
2023-03-07T08:52:57.992Z,5.07
2023-03-07T08:55:26.294Z,4.23
2023-03-07T08:57:55.926Z,4.03
2023-03-07T09:00:25.135Z,4.43
2023-03-07T09:02:54.276Z,3.77
2023-03-07T09:05:22.321Z,4.53
2023-03-07T09:07:50.368Z,3.57
2023-03-07T09:10:20.929Z,3.70
2023-03-07T09:12:49.898Z,4.60
2023-03-07T09:15:19.561Z,3.63
2023-03-07T09:17:47.661Z,3.40
2023-03-07T09:20:17.199Z,3.60
2023-03-07T09:22:46.713Z,3.50
2023-03-07T09:25:15.523Z,3.23
2023-03-07T09:27:45.518Z,3.33
2023-03-07T09:30:15.185Z,3.80
2023-03-07T09:32:45.137Z,3.07
2023-03-07T09:35:13.337Z,3.87
2023-03-07T09:37:41.713Z,3.07
2023-03-07T09:40:17.299Z,3.30
2023-03-07T09:42:57.901Z,3.63
2023-03-07T09:45:42.351Z,3.13
2023-03-07T09:49:03.574Z,3.23
2023-03-07T09:51:40.180Z,2.90
2023-03-07T09:54:13.700Z,2.80
2023-03-07T09:56:47.309Z,3.03
2023-03-07T09:59:23.846Z,3.10
2023-03-07T10:02:00.114Z,3.37
2023-03-07T10:04:39.910Z,2.97
2023-03-07T10:07:12.562Z,3.27
2023-03-07T10:09:40.662Z,3.10
2023-03-07T10:12:31.702Z,3.93
2023-03-07T10:15:17.834Z,3.17
2023-03-07T10:18:07.779Z,3.10
2023-03-07T10:20:46.587Z,2.90
2023-03-07T10:23:41.182Z,3.10
2023-03-07T10:26:13.368Z,3.43
2023-03-07T10:28:44.234Z,2.70
2023-03-07T10:31:19.016Z,3.10
2023-03-07T10:33:50.216Z,3.10
2023-03-07T10:36:23.091Z,3.73
2023-03-07T10:39:04.333Z,3.20
2023-03-07T10:41:32.614Z,3.10
2023-03-07T10:44:00.809Z,3.50
2023-03-07T10:46:31.506Z,3.90
2023-03-07T10:49:10.674Z,3.40
2023-03-07T10:51:54.185Z,4.43
2023-03-07T10:54:30.165Z,3.00
2023-03-07T10:57:09.259Z,2.93
2023-03-07T10:59:39.480Z,3.23
2023-03-07T11:02:37.174Z,3.50
2023-03-07T11:05:26.506Z,3.33
2023-03-07T11:07:56.040Z,2.97
2023-03-07T11:10:35.490Z,3.70
2023-03-07T11:13:14.886Z,3.53
2023-03-07T11:15:44.890Z,3.50
2023-03-07T11:18:29.741Z,3.77
2023-03-07T11:20:58.978Z,3.70
2023-03-07T11:23:30.769Z,3.30
2023-03-07T11:26:16.271Z,3.70
2023-03-07T11:28:44.772Z,3.80
2023-03-07T11:31:21.337Z,3.87
2023-03-07T11:33:59.479Z,3.50
2023-03-07T11:36:33.406Z,3.37
2023-03-07T11:39:15.259Z,3.37
2023-03-07T11:41:49.360Z,3.10
2023-03-07T11:44:30.265Z,4.00
2023-03-07T11:47:21.274Z,3.30
2023-03-07T11:50:09.173Z,3.13
2023-03-07T11:53:06.250Z,3.17
2023-03-07T11:55:42.737Z,3.13
2023-03-07T11:58:40.429Z,3.17
2023-03-07T12:01:21.853Z,3.17
2023-03-07T12:04:23.457Z,3.30
2023-03-07T12:07:02.979Z,2.80
2023-03-07T12:09:42.255Z,3.10
2023-03-07T12:12:32.395Z,2.97
2023-03-07T12:15:18.671Z,3.20
2023-03-07T12:17:56.246Z,2.90
2023-03-07T12:20:40.826Z,2.63
2023-03-07T12:23:17.192Z,3.93
2023-03-07T12:25:49.543Z,3.30
2023-03-07T12:28:28.617Z,3.93
2023-03-07T12:31:09.295Z,3.13
2023-03-07T12:33:54.886Z,3.60
2023-03-07T12:36:31.449Z,3.53
2023-03-07T12:39:06.618Z,3.00
2023-03-07T12:41:48.972Z,3.13
2023-03-07T12:44:35.388Z,3.10
2023-03-07T12:47:15.762Z,2.83
2023-03-07T12:49:54.350Z,3.00
2023-03-07T12:52:35.801Z,3.37
2023-03-07T12:55:17.585Z,3.10
2023-03-07T12:57:52.454Z,2.60
2023-03-07T13:00:23.531Z,2.70
2023-03-07T13:03:01.157Z,2.57
2023-03-07T13:05:30.936Z,2.83
2023-03-07T13:07:59.451Z,2.47
2023-03-07T13:10:28.160Z,2.40
2023-03-07T13:12:56.245Z,2.60
2023-03-07T13:16:07.363Z,2.70
2023-03-07T13:18:35.395Z,2.83
2023-03-07T13:21:32.524Z,2.00
2023-03-07T13:24:35.862Z,2.47
2023-03-07T13:27:05.674Z,2.03
2023-03-07T13:30:19.171Z,2.20
2023-03-07T13:33:00.859Z,2.00
2023-03-07T13:35:57.767Z,2.00
2023-03-07T13:38:35.838Z,2.53
2023-03-07T13:41:05.328Z,2.60
2023-03-07T13:44:02.646Z,2.87
2023-03-07T13:47:02.528Z,3.10
2023-03-07T13:49:47.979Z,2.67
2023-03-07T13:52:49.980Z,2.57
2023-03-07T13:55:46.424Z,3.00
2023-03-07T13:58:26.024Z,2.40
2023-03-07T14:00:58.847Z,2.57
2023-03-07T14:03:32.943Z,2.70
2023-03-07T14:06:10.199Z,2.40
2023-03-07T14:08:39.130Z,2.53
2023-03-07T14:11:15.734Z,3.20
2023-03-07T14:14:26.240Z,2.43
2023-03-07T14:17:17.751Z,1.97
2023-03-07T14:19:59.944Z,2.20
2023-03-07T14:22:56.144Z,2.30
2023-03-07T14:25:44.248Z,2.40
2023-03-07T14:28:26.845Z,2.67
2023-03-07T14:30:58.843Z,2.23
2023-03-07T14:33:35.983Z,2.20
2023-03-07T14:36:16.074Z,2.13
2023-03-07T14:38:48.764Z,2.10
2023-03-07T14:41:36.582Z,2.03
2023-03-07T14:44:27.935Z,2.10
2023-03-07T14:47:10.782Z,2.83
2023-03-07T14:49:51.905Z,2.20
2023-03-07T14:52:30.904Z,2.30
2023-03-07T14:55:03.850Z,2.30
2023-03-07T14:57:35.690Z,2.40
2023-03-07T15:00:11.987Z,2.93
2023-03-07T15:02:48.562Z,2.93
2023-03-07T15:05:18.683Z,2.50
2023-03-07T15:07:48.028Z,2.90
2023-03-07T15:10:20.941Z,2.57
2023-03-07T15:12:54.247Z,2.37
2023-03-07T15:15:31.285Z,2.80
2023-03-07T15:18:06.886Z,2.23
2023-03-07T15:20:35.386Z,3.13
2023-03-07T15:23:07.576Z,2.30
2023-03-07T15:25:39.123Z,2.27
2023-03-07T15:28:17.845Z,2.40
2023-03-07T15:30:52.880Z,2.20
2023-03-07T15:33:26.035Z,2.43
2023-03-07T15:36:27.561Z,1.70
2023-03-07T15:39:27.616Z,2.53
2023-03-07T15:42:06.801Z,2.60
2023-03-07T15:44:36.397Z,2.47
2023-03-07T15:47:15.061Z,2.93
2023-03-07T15:49:47.263Z,2.40
2023-03-07T15:52:28.378Z,2.47
2023-03-07T15:54:59.352Z,2.77
2023-03-07T15:57:33.765Z,2.40
2023-03-07T16:00:06.890Z,2.20
2023-03-07T16:02:43.536Z,2.80
2023-03-07T16:05:36.762Z,2.37
2023-03-07T16:08:14.095Z,2.53
2023-03-07T16:10:52.120Z,2.70
2023-03-07T16:13:25.894Z,2.50
2023-03-07T16:16:03.121Z,2.50
2023-03-07T16:18:32.930Z,3.03
2023-03-07T16:21:00.994Z,2.47
2023-03-07T16:23:31.404Z,3.13
2023-03-07T16:26:02.769Z,2.53
2023-03-07T16:28:32.949Z,2.83
2023-03-07T16:31:01.081Z,3.13
2023-03-07T16:33:29.111Z,2.77
2023-03-07T16:35:57.277Z,2.83
2023-03-07T16:38:25.454Z,2.70
2023-03-07T16:40:53.553Z,2.47
2023-03-07T16:43:35.079Z,3.13
2023-03-07T16:46:05.793Z,2.80
2023-03-07T16:48:38.893Z,3.00
2023-03-07T16:51:10.073Z,2.37
2023-03-07T16:53:38.207Z,2.57
2023-03-07T16:56:07.027Z,2.90
2023-03-07T16:58:39.795Z,2.73
2023-03-07T17:01:08.029Z,2.43
2023-03-07T17:03:36.194Z,3.37
2023-03-07T17:06:04.607Z,3.50
2023-03-07T17:08:32.696Z,5.07
2023-03-07T17:11:00.785Z,3.53
2023-03-07T17:13:29.712Z,2.70
2023-03-07T17:15:59.705Z,2.73
2023-03-07T17:18:33.806Z,2.80
2023-03-07T17:21:01.881Z,2.77
2023-03-07T17:23:29.937Z,3.03
2023-03-07T17:25:58.121Z,3.03
2023-03-07T17:28:26.711Z,2.90
2023-03-07T17:30:54.897Z,3.00
2023-03-07T17:33:26.228Z,2.87
2023-03-07T17:35:57.063Z,3.20
2023-03-07T17:38:25.190Z,5.80
2023-03-07T17:40:55.987Z,5.77
2023-03-07T17:43:24.492Z,3.10
2023-03-07T17:45:52.564Z,2.57
2023-03-07T17:48:20.713Z,3.10
2023-03-07T17:50:50.113Z,2.70
2023-03-07T17:53:18.255Z,3.10
2023-03-07T17:55:46.375Z,2.63
2023-03-07T17:58:14.370Z,2.27
2023-03-07T18:00:42.447Z,2.67
2023-03-07T18:03:14.572Z,3.30
2023-03-07T18:05:42.758Z,3.10
2023-03-07T18:08:12.591Z,3.90
2023-03-07T18:10:40.633Z,2.90
2023-03-07T18:13:14.882Z,3.70
2023-03-07T18:15:46.983Z,7.27
2023-03-07T18:18:16.249Z,3.47
2023-03-07T18:20:44.560Z,3.03
2023-03-07T18:23:13.998Z,3.40
2023-03-07T18:25:42.099Z,2.93
2023-03-07T18:28:10.311Z,3.13
2023-03-07T18:30:38.355Z,3.70
2023-03-07T18:33:06.390Z,3.50
2023-03-07T18:35:37.899Z,3.90
2023-03-07T18:38:05.984Z,3.90
2023-03-07T18:40:35.372Z,4.00
2023-03-07T18:43:03.514Z,2.93
2023-03-07T18:45:31.952Z,3.20
2023-03-07T18:48:00.675Z,3.00
2023-03-07T18:50:29.642Z,3.20
2023-03-07T18:52:57.839Z,3.07
2023-03-07T18:55:26.179Z,2.90
2023-03-07T18:57:55.658Z,3.20
2023-03-07T19:00:24.557Z,3.10
2023-03-07T19:02:52.575Z,3.07
2023-03-07T19:05:20.777Z,3.03
2023-03-07T19:07:48.798Z,3.47
2023-03-07T19:10:17.324Z,3.50
2023-03-07T19:12:45.694Z,3.77
2023-03-07T19:15:15.123Z,2.87
2023-03-07T19:17:43.149Z,3.30
2023-03-07T19:20:13.374Z,3.20
2023-03-07T19:22:41.983Z,3.17
2023-03-07T19:25:10.919Z,2.90
2023-03-07T19:27:39.019Z,3.13
2023-03-07T19:30:11.244Z,3.10
2023-03-07T19:32:40.757Z,3.10
2023-03-07T19:35:09.694Z,2.70
2023-03-07T19:37:37.911Z,2.30
2023-03-07T19:40:11.458Z,2.50
2023-03-07T19:42:39.546Z,2.57
2023-03-07T19:45:09.374Z,2.43
2023-03-07T19:47:37.462Z,2.30
2023-03-07T19:50:31.523Z,2.53
2023-03-07T19:53:00.080Z,2.70
2023-03-07T19:55:31.157Z,2.47
2023-03-07T19:57:59.566Z,2.53
2023-03-07T20:00:27.847Z,2.10
2023-03-07T20:02:55.826Z,2.90
2023-03-07T20:05:24.747Z,2.80
2023-03-07T20:07:54.150Z,2.20
2023-03-07T20:10:22.742Z,2.20
2023-03-07T20:12:52.896Z,1.97
2023-03-07T20:15:21.744Z,2.20
2023-03-07T20:17:49.962Z,2.03
2023-03-07T20:20:19.008Z,2.00
2023-03-07T20:22:47.115Z,2.30
2023-03-07T20:25:16.773Z,2.40
2023-03-07T20:27:44.945Z,2.33
2023-03-07T20:30:14.286Z,2.50
2023-03-07T20:32:42.501Z,2.30
2023-03-07T20:35:11.386Z,2.53
2023-03-07T20:37:39.930Z,2.27
2023-03-07T20:40:10.312Z,2.87
2023-03-07T20:42:39.805Z,2.77
2023-03-07T20:45:09.196Z,2.40
2023-03-07T20:47:38.509Z,2.60
2023-03-07T20:50:07.971Z,2.47
2023-03-07T20:52:37.248Z,2.30
2023-03-07T20:55:06.554Z,2.33
2023-03-07T20:57:34.619Z,2.10
2023-03-07T21:00:05.771Z,1.90
2023-03-07T21:02:36.258Z,2.00
2023-03-07T21:05:30.071Z,2.33
2023-03-07T21:07:58.146Z,2.20
2023-03-07T21:10:26.196Z,2.23
2023-03-07T21:12:54.267Z,1.93
2023-03-07T21:15:23.708Z,2.30
2023-03-07T21:17:52.776Z,2.03
2023-03-07T21:20:22.736Z,2.57
2023-03-07T21:22:50.808Z,2.30
2023-03-07T21:25:18.907Z,2.67
2023-03-07T21:27:47.131Z,2.20
2023-03-07T21:30:15.501Z,2.60
2023-03-07T21:32:45.055Z,2.03
2023-03-07T21:35:13.770Z,2.00
2023-03-07T21:37:41.816Z,2.47
2023-03-07T21:40:12.094Z,2.50
2023-03-07T21:42:40.253Z,2.17
2023-03-07T21:45:10.792Z,2.57
2023-03-07T21:47:39.171Z,2.20
2023-03-07T21:50:10.437Z,2.83
2023-03-07T21:52:38.482Z,2.50
2023-03-07T21:55:08.194Z,2.23
2023-03-07T21:57:36.838Z,2.60
2023-03-07T22:00:08.351Z,2.83
2023-03-07T22:02:37.388Z,2.13
2023-03-07T22:05:06.341Z,2.43
2023-03-07T22:07:35.806Z,2.70
2023-03-07T22:10:03.934Z,2.50
2023-03-07T22:12:32.814Z,2.40
2023-03-07T22:15:00.949Z,3.10
2023-03-07T22:17:29.210Z,2.33
2023-03-07T22:19:57.240Z,2.73
2023-03-07T22:22:25.282Z,2.37
2023-03-07T22:24:54.670Z,2.37
2023-03-07T22:27:22.834Z,2.40
2023-03-07T22:29:50.950Z,2.37
2023-03-07T22:32:19.054Z,2.33
2023-03-07T22:34:47.129Z,2.33
2023-03-07T22:37:15.343Z,2.53
2023-03-07T22:39:43.401Z,2.50
2023-03-07T22:42:12.792Z,2.27
2023-03-07T22:44:40.887Z,2.57
2023-03-07T22:47:09.250Z,2.03
2023-03-07T22:49:37.316Z,2.90
2023-03-07T22:52:06.047Z,2.70
2023-03-07T22:54:39.088Z,2.13
2023-03-07T22:57:07.266Z,2.10
2023-03-07T22:59:36.829Z,2.53
2023-03-07T23:02:04.947Z,2.30
2023-03-07T23:04:33.061Z,2.10
2023-03-07T23:07:01.346Z,2.70
2023-03-07T23:09:29.384Z,2.40
2023-03-07T23:11:57.437Z,2.67
2023-03-07T23:14:25.535Z,2.70
2023-03-07T23:16:55.085Z,2.80
2023-03-07T23:19:23.129Z,2.53
2023-03-07T23:21:51.174Z,2.27
2023-03-07T23:24:19.253Z,2.97
2023-03-07T23:26:47.654Z,2.33
2023-03-07T23:29:15.996Z,2.33
2023-03-07T23:31:45.201Z,2.67
2023-03-07T23:34:18.942Z,3.13
2023-03-07T23:36:47.748Z,2.60
2023-03-07T23:39:17.453Z,2.60
2023-03-07T23:41:46.183Z,2.83
2023-03-07T23:44:14.442Z,2.57
2023-03-07T23:46:42.499Z,3.80
2023-03-07T23:49:11.263Z,2.63
2023-03-07T23:51:40.637Z,3.03
2023-03-07T23:54:09.024Z,2.80
2023-03-07T23:56:37.068Z,3.00
2023-03-07T23:59:05.284Z,2.97
